Evansville (EVV/KEVV)

Map

Destinations

Information

Location
Evansville, IN
Local Time
18:41 / 6:41 pm
GMT Time
22:41 / 10:41 pm
Gates
A2
No FAA reported delays
METAR KEVV 242154Z 36007KT 10SM FEW042 32/21 A2993 RMK AO2 SLP130 T03220211
TAF KEVV 241738Z 2418/2518 32005KT P6SM SCT050 FM250100 04004KT P6SM SCT250 FM251300 06005KT P6SM SCT050